• Join FlightAware (Why Join?)
  • Login
  • US Flag 
11:37AM EDT


 

Airport Tracker/Info


-or-


 

Live Flight TrackerFlight Track Log ✈ N682RW ✈ 19-Oct-2013 ✈ KPHX - KGYR

Flight Track Log - Related Links

Times and Time Zones

All times are in EDT time to prevent confusion due to time zone crossing. See the N682RW flight status page for this flight to view local times or setup timezone preferences in your user account.

Time Position Orientation Groundspeed Altitude Reporting Facility
EDT Latitude Longitude Course Direction KTS MPH feet Rate Location/Type
03:13PM 33.4333 -112.0000 90° East 170 196 2,100  Level Phoenix TRACON
03:14PM 33.4333 -111.9167 90° East 242 278 5,400 1,980 Climbing Phoenix TRACON
03:15PM 33.4000 -111.8500 121° Southeast 284 327 6,000 360 Climbing Phoenix TRACON
03:16PM 33.3558 -111.8758 206° Southwest 276 318 6,000  Level Albuquerque Center
03:17PM 33.3556 -111.9736 270° West 271 312 6,000  Level Albuquerque Center
03:18PM 33.3589 -112.0542 273° West 267 307 6,000  Level Albuquerque Center
03:19PM 33.3447 -112.1494 260° West 276 318 6,000  Level Albuquerque Center
03:19PM 33.3461 -112.1431 75° East 277 319 6,000  Level Albuquerque Center
03:20PM 33.3203 -112.2394 252° West 271 312 6,000  Level Albuquerque Center
03:20PM 33.3231 -112.2286 73° East 272 313 6,000  Level Albuquerque Center
03:21PM 33.3008 -112.3208 254° West 224 258 6,000  Level Albuquerque Center
03:21PM 33.3039 -112.3114 69° East 262 302 6,000 -120 Level Albuquerque Center
03:22PM 33.2900 -112.3922 258° West 217 250 5,900  Descending Albuquerque Center
03:22PM 33.2878 -112.3825 105° East 227 261 6,000 -1,560 Climbing Albuquerque Center
03:23PM 33.3147 -112.4469 297° West 198 228 4,500 -1,860 Descending Albuquerque Center
03:23PM 33.3211 -112.4553 313° West 206 237 4,100 -1,320 Descending Albuquerque Center
03:24PM 33.3536 -112.4497 North 167 192 3,200 -1,080 Descending Albuquerque Center
03:24PM 33.3572 -112.4386 69° East 166 191 3,000 -1,320 Descending Albuquerque Center
03:25PM 33.3775 -112.4158 43° Northeast 126 145 1,900 -1,320 Descending Albuquerque Center
03:25PM 33.3825 -112.4100 44° Northeast 140 161 1,700 -660 Descending Albuquerque Center
03:26PM 33.4114 -112.3856 35° Northeast 129 148 1,100 -600 Descending Albuquerque Center